Terminal Aerodrome Forecast
Issued by NWS

Home | Current Version | Previous Version | Text Only | Print | Product List | Glossary On
Versions: 1 2 3 4 5 6 7 8 9 10 11 12 13 14 15
000
FTUS46 KSGX 051520 AAB
TAFCRQ
TAF AMD
KCRQ 051520Z 0515/0612 VRB04KT P6SM BKN009
     FM051700 VRB04KT P6SM SCT010
     FM052000 22008KT P6SM SCT015
     FM060000 VRB04KT P6SM SCT018
     FM060400 VRB04KT P6SM OVC018=

USA.gov is the U.S. government's official web portal to all federal, state and local government web resources and services.